Time;durP1;ratioP1;P1;durP2;ratioP2;P2;SDS_P1;SDS_P2;PMS_P1;PMS_P2;Temp;Humidity;BMP_temperature;BMP_pressure;BME280_temperature;BME280_humidity;BME280_pressure;Samples;Min_cycle;Max_cycle;Signal;HPM_P1;HPM_P2
2021/05/26 00:02:01;;;;;;;;;;;;;;;8.85;100.00;98715.28;5029190;28;19917;-63
2021/05/26 00:04:26;;;;;;;;;;;;;;;8.56;100.00;98719.50;5014880;28;19983;-63
2021/05/26 00:06:52;;;;;;;;;;;;;;;8.68;100.00;98717.47;5007511;28;19974;-63
2021/05/26 00:09:17;;;;;;;;;;;;;;;8.76;100.00;98716.38;5010705;28;20293;-63
2021/05/26 00:11:42;;;;;;;;;;;;;;;8.76;100.00;98711.25;5025917;28;19917;-63
2021/05/26 00:14:08;;;;;;;;;;;;;;;8.62;100.00;98715.09;5027166;28;20374;-63
2021/05/26 00:16:33;;;;;;;;;;;;;;;8.72;100.00;98717.34;5025301;28;19913;-63
2021/05/26 00:18:58;;;;;;;;;;;;;;;8.68;100.00;98713.19;5013961;28;19920;-63
2021/05/26 00:21:25;;;;;;;;;;;;;;;8.67;100.00;98714.09;5027806;28;20349;-63
2021/05/26 00:23:50;;;;;;;;;;;;;;;8.74;100.00;98709.59;5023683;28;19917;-62
2021/05/26 00:26:16;;;;;;;;;;;;;;;8.62;100.00;98712.50;5024147;28;20000;-62
2021/05/26 00:28:43;;;;;;;;;;;;;;;9.04;100.00;98704.44;5023842;28;20362;-62
2021/05/26 00:31:10;;;;;;;;;;;;;;;8.87;100.00;98708.38;5027839;28;20004;-63
2021/05/26 00:33:35;;;;;;;;;;;;;;;8.79;100.00;98700.88;5008780;28;19945;-63
2021/05/26 00:36:01;;;;;;;;;;;;;;;8.75;100.00;98704.41;5033278;28;20390;-63
2021/05/26 00:38:26;;;;;;;;;;;;;;;8.66;100.00;98704.69;5035609;28;19944;-63
2021/05/26 00:40:51;;;;;;;;;;;;;;;8.84;100.00;98705.03;5033340;28;19913;-62
2021/05/26 00:43:17;;;;;;;;;;;;;;;8.72;100.00;98699.38;5013938;28;20020;-63
2021/05/26 00:45:42;;;;;;;;;;;;;;;8.85;100.00;98689.59;4995209;28;20341;-62
2021/05/26 00:48:08;;;;;;;;;;;;;;;8.64;100.00;98698.75;5030717;28;20460;-62
2021/05/26 00:50:34;;;;;;;;;;;;;;;8.45;100.00;98697.59;5015340;28;19923;-63
2021/05/26 00:53:00;;;;;;;;;;;;;;;8.65;100.00;98703.00;5033500;28;20294;-63
2021/05/26 00:55:26;;;;;;;;;;;;;;;8.50;100.00;98694.00;5015834;28;19913;-62
2021/05/26 00:57:51;;;;;;;;;;;;;;;8.76;100.00;98692.44;5012835;28;19914;-62
2021/05/26 01:00:18;;;;;;;;;;;;;;;8.69;100.00;98693.47;5029323;28;20355;-62
2021/05/26 01:02:44;;;;;;;;;;;;;;;8.79;100.00;98692.34;5030331;28;20048;-62
2021/05/26 01:05:11;;;;;;;;;;;;;;;8.63;100.00;98696.25;5029628;28;20383;-62
2021/05/26 01:07:38;;;;;;;;;;;;;;;8.76;100.00;98690.69;5032821;28;20366;-63
2021/05/26 01:10:04;;;;;;;;;;;;;;;8.87;100.00;98686.97;5029081;28;19921;-62
2021/05/26 01:12:29;;;;;;;;;;;;;;;8.77;100.00;98688.97;5032663;28;19917;-63
2021/05/26 01:14:54;;;;;;;;;;;;;;;8.64;100.00;98695.34;5030813;28;19919;-63
2021/05/26 01:17:20;;;;;;;;;;;;;;;8.51;100.00;98684.59;5030457;28;20313;-63
2021/05/26 01:19:45;;;;;;;;;;;;;;;8.78;100.00;98688.06;5034008;28;19917;-63
2021/05/26 01:22:10;;;;;;;;;;;;;;;8.93;100.00;98682.47;5031580;28;19928;-63
2021/05/26 01:24:36;;;;;;;;;;;;;;;9.05;100.00;98681.25;5031266;28;20040;-63
2021/05/26 01:27:02;;;;;;;;;;;;;;;9.12;100.00;98676.78;5033294;28;19920;-63
2021/05/26 01:29:27;;;;;;;;;;;;;;;9.24;100.00;98678.09;5030979;28;19917;-63
2021/05/26 01:31:53;;;;;;;;;;;;;;;9.17;100.00;98668.06;5046343;28;20404;-62
2021/05/26 01:34:19;;;;;;;;;;;;;;;9.23;100.00;98668.75;5060368;28;19921;-63
2021/05/26 01:36:45;;;;;;;;;;;;;;;9.07;100.00;98653.81;5054070;28;20309;-63
2021/05/26 01:39:10;;;;;;;;;;;;;;;8.91;100.00;98655.16;5058843;28;19921;-63
2021/05/26 01:41:36;;;;;;;;;;;;;;;8.72;100.00;98653.16;5054121;28;19917;-63
2021/05/26 01:44:02;;;;;;;;;;;;;;;8.74;100.00;98651.41;5056768;28;19920;-63
2021/05/26 01:46:28;;;;;;;;;;;;;;;8.53;100.00;98646.88;5059223;28;19923;-63
2021/05/26 01:48:53;;;;;;;;;;;;;;;8.64;100.00;98649.97;5054594;28;20003;-62
2021/05/26 01:51:18;;;;;;;;;;;;;;;8.57;100.00;98643.34;5055748;28;19917;-63
2021/05/26 01:53:44;;;;;;;;;;;;;;;8.51;100.00;98640.97;5057755;28;19939;-63
2021/05/26 01:56:17;;;;;;;;;;;;;;;8.57;100.00;98633.06;5057352;28;19963;-62
2021/05/26 01:58:42;;;;;;;;;;;;;;;8.49;100.00;98642.75;5055859;28;19967;-63
2021/05/26 02:01:08;;;;;;;;;;;;;;;8.66;100.00;98637.94;5057660;28;19912;-62
2021/05/26 02:03:35;;;;;;;;;;;;;;;8.71;100.00;98641.22;5054362;28;19920;-62
2021/05/26 02:06:00;;;;;;;;;;;;;;;8.88;100.00;98637.31;5036163;28;19917;-62
2021/05/26 02:08:26;;;;;;;;;;;;;;;8.86;100.00;98639.06;5057016;28;19925;-63
2021/05/26 02:13:37;;;;;;;;;;;;;;;8.85;100.00;98632.25;5056787;28;20339;-63
2021/05/26 02:16:02;;;;;;;;;;;;;;;8.97;100.00;98627.56;5055243;28;19913;-63
2021/05/26 02:18:28;;;;;;;;;;;;;;;8.71;100.00;98622.41;5056392;28;19919;-63
2021/05/26 02:20:54;;;;;;;;;;;;;;;8.50;100.00;98622.16;5037452;28;19917;-63
2021/05/26 02:23:19;;;;;;;;;;;;;;;8.50;100.00;98623.88;5056748;28;19920;-63
2021/05/26 02:25:44;;;;;;;;;;;;;;;8.22;100.00;98627.22;5056631;28;19958;-63
2021/05/26 02:28:10;;;;;;;;;;;;;;;8.50;100.00;98626.44;5037346;28;19943;-61
2021/05/26 02:30:35;;;;;;;;;;;;;;;8.04;100.00;98628.56;5055545;28;19951;-63
2021/05/26 02:33:00;;;;;;;;;;;;;;;8.23;100.00;98628.88;5055458;28;19986;-62
2021/05/26 02:35:27;;;;;;;;;;;;;;;8.01;100.00;98630.41;5055063;28;19955;-63
2021/05/26 02:37:52;;;;;;;;;;;;;;;8.25;100.00;98626.28;5055304;28;19966;-63
2021/05/26 02:40:18;;;;;;;;;;;;;;;8.17;100.00;98618.81;5055217;28;19912;-63
2021/05/26 02:42:43;;;;;;;;;;;;;;;8.17;100.00;98617.09;5050819;28;20285;-63
2021/05/26 02:45:08;;;;;;;;;;;;;;;7.90;100.00;98618.69;5056023;28;20212;-63
2021/05/26 02:47:34;;;;;;;;;;;;;;;7.99;100.00;98614.22;5054820;28;19944;-63
2021/05/26 02:49:59;;;;;;;;;;;;;;;8.02;100.00;98614.13;5051463;28;19921;-62
2021/05/26 02:52:24;;;;;;;;;;;;;;;8.21;100.00;98605.03;5056869;28;19920;-63
2021/05/26 02:54:50;;;;;;;;;;;;;;;8.24;100.00;98604.94;5035077;28;19920;-62
2021/05/26 02:57:15;;;;;;;;;;;;;;;8.33;100.00;98603.84;5056872;28;19916;-63
2021/05/26 02:59:40;;;;;;;;;;;;;;;8.46;100.00;98601.75;5054063;28;19916;-63
2021/05/26 03:02:06;;;;;;;;;;;;;;;7.99;100.00;98594.53;5053593;28;19921;-63
2021/05/26 03:04:31;;;;;;;;;;;;;;;8.05;100.00;98594.38;5055188;28;20004;-63
2021/05/26 03:06:57;;;;;;;;;;;;;;;8.21;100.00;98589.66;5056187;28;19917;-62
2021/05/26 03:09:22;;;;;;;;;;;;;;;8.18;100.00;98592.28;5033704;28;19920;-63
2021/05/26 03:11:47;;;;;;;;;;;;;;;8.02;100.00;98599.56;5034692;28;19917;-62
2021/05/26 03:14:13;;;;;;;;;;;;;;;8.04;100.00;98592.66;5054588;28;19913;-63
2021/05/26 03:16:38;;;;;;;;;;;;;;;8.18;100.00;98597.41;5054456;28;19920;-63
2021/05/26 03:19:03;;;;;;;;;;;;;;;8.01;100.00;98602.19;5055529;28;20386;-63
2021/05/26 03:21:29;;;;;;;;;;;;;;;7.89;100.00;98599.09;5053693;28;19974;-63
2021/05/26 03:23:54;;;;;;;;;;;;;;;8.09;100.00;98600.25;5055063;28;20357;-63
2021/05/26 03:26:19;;;;;;;;;;;;;;;8.04;100.00;98604.66;5055130;28;20009;-62
2021/05/26 03:28:45;;;;;;;;;;;;;;;8.02;100.00;98601.28;5054133;28;20004;-63
2021/05/26 03:31:10;;;;;;;;;;;;;;;7.77;100.00;98594.28;5054778;28;19952;-63
2021/05/26 03:33:35;;;;;;;;;;;;;;;7.93;100.00;98594.69;5055177;28;19967;-63
2021/05/26 03:36:03;;;;;;;;;;;;;;;7.83;100.00;98596.69;5051759;28;19917;-63
2021/05/26 03:38:29;;;;;;;;;;;;;;;7.86;100.00;98596.59;5054511;28;19917;-63
2021/05/26 03:40:54;;;;;;;;;;;;;;;7.87;100.00;98593.16;5055674;28;19913;-63
2021/05/26 03:43:19;;;;;;;;;;;;;;;7.79;100.00;98597.63;5052829;28;20419;-62
2021/05/26 03:45:45;;;;;;;;;;;;;;;7.88;100.00;98591.44;5054683;28;19920;-62
2021/05/26 03:48:10;;;;;;;;;;;;;;;8.01;100.00;98592.78;5056926;28;19924;-63
2021/05/26 03:50:36;;;;;;;;;;;;;;;8.31;100.00;98585.91;5055597;28;19917;-63
2021/05/26 03:53:01;;;;;;;;;;;;;;;8.13;100.00;98602.66;5053994;28;19919;-63
2021/05/26 03:55:27;;;;;;;;;;;;;;;7.99;100.00;98596.25;5052578;28;19913;-63
2021/05/26 03:57:52;;;;;;;;;;;;;;;8.26;100.00;98594.63;5035844;28;19960;-63
2021/05/26 04:00:19;;;;;;;;;;;;;;;8.26;100.00;98598.03;5053774;28;20474;-62
2021/05/26 04:02:44;;;;;;;;;;;;;;;8.48;100.00;98597.44;5036982;28;19916;-62
2021/05/26 04:05:09;;;;;;;;;;;;;;;8.33;100.00;98591.00;5054889;28;19913;-63
2021/05/26 04:07:35;;;;;;;;;;;;;;;8.27;100.00;98586.88;5062343;28;19920;-63
2021/05/26 04:10:00;;;;;;;;;;;;;;;8.44;100.00;98591.56;5060437;28;19923;-63
2021/05/26 04:12:27;;;;;;;;;;;;;;;8.65;100.00;98594.38;5043833;28;19912;-63
2021/05/26 04:14:53;;;;;;;;;;;;;;;8.60;100.00;98597.06;5061267;28;20403;-63
2021/05/26 04:17:18;;;;;;;;;;;;;;;8.70;100.00;98590.75;5040607;28;19913;-63
2021/05/26 04:19:43;;;;;;;;;;;;;;;8.60;100.00;98597.06;5060522;28;19951;-63
2021/05/26 04:22:09;;;;;;;;;;;;;;;8.45;100.00;98587.25;5056194;28;19925;-63
2021/05/26 04:24:34;;;;;;;;;;;;;;;8.90;100.00;98584.16;5056256;28;20019;-63
2021/05/26 04:26:59;;;;;;;;;;;;;;;8.94;100.00;98591.72;5063334;28;19925;-63
2021/05/26 04:29:25;;;;;;;;;;;;;;;8.82;100.00;98596.41;5058599;28;19983;-63
2021/05/26 04:31:50;;;;;;;;;;;;;;;8.90;100.00;98585.00;5063710;28;19924;-63
2021/05/26 04:34:15;;;;;;;;;;;;;;;9.26;100.00;98581.28;5062617;28;19917;-63
2021/05/26 04:36:41;;;;;;;;;;;;;;;9.00;100.00;98582.97;5060890;28;20293;-63
2021/05/26 04:39:06;;;;;;;;;;;;;;;8.98;100.00;98583.00;5059536;28;19912;-63
2021/05/26 04:41:32;;;;;;;;;;;;;;;9.10;100.00;98571.53;5061940;28;19913;-63
2021/05/26 04:43:57;;;;;;;;;;;;;;;8.97;100.00;98578.78;5061263;28;19917;-63
2021/05/26 04:46:22;;;;;;;;;;;;;;;8.98;100.00;98577.03;5038754;28;20004;-62
2021/05/26 04:48:48;;;;;;;;;;;;;;;9.13;100.00;98571.41;5041662;28;19917;-63
2021/05/26 04:51:13;;;;;;;;;;;;;;;9.05;100.00;98568.25;5044782;28;19959;-63
2021/05/26 04:53:38;;;;;;;;;;;;;;;9.18;100.00;98572.09;5060895;28;19920;-63
2021/05/26 04:56:04;;;;;;;;;;;;;;;9.07;100.00;98571.59;5062931;28;20369;-63
2021/05/26 04:58:29;;;;;;;;;;;;;;;8.94;100.00;98583.16;5060251;28;19924;-63
2021/05/26 05:00:54;;;;;;;;;;;;;;;9.10;100.00;98568.09;5059337;28;19913;-63
2021/05/26 05:03:19;;;;;;;;;;;;;;;8.78;100.00;98575.97;5060979;28;20301;-63
2021/05/26 05:05:45;;;;;;;;;;;;;;;9.00;100.00;98575.25;5061857;28;20412;-61
2021/05/26 05:08:10;;;;;;;;;;;;;;;8.99;100.00;98571.88;5062556;28;19927;-62
2021/05/26 05:10:36;;;;;;;;;;;;;;;9.10;100.00;98570.66;5058614;28;19917;-62
2021/05/26 05:13:01;;;;;;;;;;;;;;;8.75;100.00;98573.47;5041176;28;20401;-62
2021/05/26 05:15:27;;;;;;;;;;;;;;;9.18;100.00;98569.53;5061119;28;19923;-62
2021/05/26 05:17:52;;;;;;;;;;;;;;;9.26;100.00;98571.00;5054757;28;19924;-63
2021/05/26 05:20:21;;;;;;;;;;;;;;;9.18;100.00;98566.94;5056426;28;20294;-62
2021/05/26 05:22:48;;;;;;;;;;;;;;;9.21;100.00;98563.44;5056865;28;19920;-62
2021/05/26 05:25:13;;;;;;;;;;;;;;;9.36;100.00;98562.09;5057017;28;20004;-62
2021/05/26 05:27:38;;;;;;;;;;;;;;;9.10;100.00;98565.53;5036879;28;20014;-62
2021/05/26 05:30:04;;;;;;;;;;;;;;;8.89;100.00;98564.50;5055629;28;19936;-62
2021/05/26 05:32:29;;;;;;;;;;;;;;;9.37;100.00;98563.75;5055230;28;19921;-62
2021/05/26 05:34:55;;;;;;;;;;;;;;;9.54;100.00;98565.75;5036933;28;20370;-62
2021/05/26 05:37:20;;;;;;;;;;;;;;;9.38;100.00;98565.47;5058379;28;19924;-62
2021/05/26 05:39:45;;;;;;;;;;;;;;;9.25;100.00;98569.31;5059212;28;19917;-62
2021/05/26 05:42:11;;;;;;;;;;;;;;;9.54;100.00;98560.63;5038287;28;19955;-62
2021/05/26 05:44:36;;;;;;;;;;;;;;;9.44;100.00;98562.66;5055934;28;20283;-62
2021/05/26 05:47:01;;;;;;;;;;;;;;;9.31;100.00;98561.41;5055628;28;19912;-62
2021/05/26 05:49:26;;;;;;;;;;;;;;;8.91;100.00;98568.69;5057877;28;20019;-63
2021/05/26 05:51:52;;;;;;;;;;;;;;;9.18;100.00;98561.81;5035243;28;19912;-62
2021/05/26 05:54:17;;;;;;;;;;;;;;;8.93;100.00;98568.66;5056057;28;19913;-62
2021/05/26 05:59:45;;;;;;;;;;;;;;;8.87;100.00;98571.41;5055268;28;19920;-62
2021/05/26 06:02:11;;;;;;;;;;;;;;;9.01;100.00;98571.81;5053993;28;20370;-62
2021/05/26 06:04:36;;;;;;;;;;;;;;;8.94;100.00;98576.31;5058187;28;19917;-63
2021/05/26 06:07:01;;;;;;;;;;;;;;;9.23;100.00;98560.81;5036853;28;19936;-62
2021/05/26 06:09:27;;;;;;;;;;;;;;;8.98;100.00;98566.75;5055151;28;19998;-62
2021/05/26 06:11:52;;;;;;;;;;;;;;;9.10;100.00;98561.25;5058884;28;19917;-62
2021/05/26 06:14:21;;;;;;;;;;;;;;;9.19;100.00;98555.81;5039840;28;20361;-62
2021/05/26 06:16:46;;;;;;;;;;;;;;;9.20;100.00;98551.50;5055798;28;19923;-62
2021/05/26 06:19:11;;;;;;;;;;;;;;;9.21;100.00;98559.16;5039431;28;20003;-62
2021/05/26 06:21:37;;;;;;;;;;;;;;;9.46;100.00;98553.16;5037971;28;19912;-62
2021/05/26 06:24:02;;;;;;;;;;;;;;;9.47;100.00;98554.03;5038920;28;19920;-62
2021/05/26 06:26:31;;;;;;;;;;;;;;;9.66;100.00;98560.19;5037297;28;19912;-62
2021/05/26 06:29:03;;;;;;;;;;;;;;;9.71;100.00;98552.31;5055639;28;20321;-62
2021/05/26 06:31:29;;;;;;;;;;;;;;;9.36;100.00;98551.81;5032771;28;20016;-62
2021/05/26 06:33:54;;;;;;;;;;;;;;;9.63;100.00;98545.72;5036944;28;20040;-62
2021/05/26 06:36:19;;;;;;;;;;;;;;;9.48;100.00;98551.38;5037775;28;19924;-62
2021/05/26 06:38:45;;;;;;;;;;;;;;;9.77;100.00;98547.78;5039503;28;20015;-62
2021/05/26 06:41:10;;;;;;;;;;;;;;;9.77;100.00;98546.94;5037949;28;19917;-62
2021/05/26 06:43:35;;;;;;;;;;;;;;;9.82;100.00;98545.88;5033210;28;20397;-62
2021/05/26 06:46:01;;;;;;;;;;;;;;;9.95;100.00;98546.28;5036050;28;19936;-62
2021/05/26 06:48:26;;;;;;;;;;;;;;;9.96;100.00;98532.50;5038206;28;20027;-62
2021/05/26 06:50:51;;;;;;;;;;;;;;;9.55;100.00;98547.69;5037537;28;19920;-62
2021/05/26 06:53:18;;;;;;;;;;;;;;;9.80;100.00;98539.13;5031712;28;19921;-62
2021/05/26 06:55:43;;;;;;;;;;;;;;;10.01;100.00;98540.06;5032425;28;19951;-62
2021/05/26 06:58:09;;;;;;;;;;;;;;;10.29;100.00;98539.06;5034945;28;19964;-63
2021/05/26 07:00:34;;;;;;;;;;;;;;;10.40;100.00;98537.75;5034509;28;19920;-63
2021/05/26 07:03:00;;;;;;;;;;;;;;;10.09;100.00;98534.66;5033448;28;19928;-63
2021/05/26 07:05:27;;;;;;;;;;;;;;;9.87;100.00;98530.28;5035191;28;19956;-62
2021/05/26 07:07:52;;;;;;;;;;;;;;;10.04;100.00;98530.50;5034126;28;20381;-62
2021/05/26 07:10:19;;;;;;;;;;;;;;;10.40;100.00;98522.31;5032801;28;20536;-62
2021/05/26 07:12:46;;;;;;;;;;;;;;;10.51;100.00;98523.63;5034783;28;19917;-63
2021/05/26 07:15:14;;;;;;;;;;;;;;;10.38;100.00;98529.25;5034263;28;19917;-63
2021/05/26 07:17:40;;;;;;;;;;;;;;;10.66;100.00;98521.28;5033386;28;19921;-63
2021/05/26 07:20:05;;;;;;;;;;;;;;;10.08;100.00;98528.66;5035281;28;19917;-63
2021/05/26 07:22:30;;;;;;;;;;;;;;;10.36;100.00;98525.91;5035376;28;19921;-63
2021/05/26 07:24:56;;;;;;;;;;;;;;;10.88;100.00;98523.81;5033440;28;19967;-63
2021/05/26 07:27:21;;;;;;;;;;;;;;;10.73;100.00;98527.03;5033519;28;19931;-63
2021/05/26 07:29:47;;;;;;;;;;;;;;;11.22;100.00;98517.28;5033692;28;19917;-63
2021/05/26 07:32:12;;;;;;;;;;;;;;;11.67;100.00;98513.59;5052438;28;20304;-62
2021/05/26 07:34:37;;;;;;;;;;;;;;;11.51;100.00;98517.75;5053435;28;19917;-63
2021/05/26 07:37:02;;;;;;;;;;;;;;;11.87;100.00;98517.03;5054967;28;20031;-63
2021/05/26 07:39:34;;;;;;;;;;;;;;;11.27;100.00;98510.19;5053909;28;19917;-63
2021/05/26 07:41:59;;;;;;;;;;;;;;;11.32;100.00;98515.13;5053492;28;19925;-63
2021/05/26 07:44:25;;;;;;;;;;;;;;;11.90;100.00;98498.84;5047972;28;20403;-63
2021/05/26 07:46:54;;;;;;;;;;;;;;;11.18;100.00;98509.75;5054417;28;19920;-63
2021/05/26 07:49:19;;;;;;;;;;;;;;;12.45;100.00;98496.31;5038655;28;19923;-63
2021/05/26 07:51:49;;;;;;;;;;;;;;;12.46;100.00;98503.13;5032546;28;20373;-64
2021/05/26 07:54:15;;;;;;;;;;;;;;;13.43;100.00;98500.94;5019171;28;19917;-63
2021/05/26 07:56:40;;;;;;;;;;;;;;;14.03;100.00;98500.38;5033583;28;20408;-63
2021/05/26 07:59:05;;;;;;;;;;;;;;;13.60;100.00;98502.66;5055222;28;19916;-63
2021/05/26 08:01:31;;;;;;;;;;;;;;;14.13;100.00;98500.72;5051193;28;19917;-63
2021/05/26 08:03:56;;;;;;;;;;;;;;;13.48;100.00;98503.28;5053697;28;19913;-63
2021/05/26 08:06:21;;;;;;;;;;;;;;;14.61;100.00;98502.38;5054533;28;19963;-63
2021/05/26 08:08:47;;;;;;;;;;;;;;;14.29;100.00;98496.38;5054796;28;20405;-63
2021/05/26 08:11:12;;;;;;;;;;;;;;;14.87;100.00;98497.47;5051300;28;19936;-63
2021/05/26 08:13:37;;;;;;;;;;;;;;;14.52;100.00;98497.66;5053599;28;19921;-62
2021/05/26 08:16:03;;;;;;;;;;;;;;;14.17;100.00;98503.06;5034941;28;19982;-63
2021/05/26 08:18:28;;;;;;;;;;;;;;;13.50;100.00;98504.06;5055356;28;19952;-63
2021/05/26 08:20:54;;;;;;;;;;;;;;;12.85;100.00;98498.69;5055360;28;19939;-63
2021/05/26 08:23:19;;;;;;;;;;;;;;;13.91;100.00;98493.25;5050912;28;19924;-63
2021/05/26 08:25:45;;;;;;;;;;;;;;;15.21;100.00;98492.88;5030899;28;19916;-63
2021/05/26 08:28:10;;;;;;;;;;;;;;;14.55;100.00;98491.50;5055976;28;19982;-63
2021/05/26 08:30:36;;;;;;;;;;;;;;;14.35;100.00;98484.84;5039706;28;20007;-63
2021/05/26 08:33:01;;;;;;;;;;;;;;;14.16;100.00;98483.28;5027418;28;19913;-63
2021/05/26 08:35:27;;;;;;;;;;;;;;;13.23;100.00;98489.03;5024571;28;19925;-63
2021/05/26 08:37:52;;;;;;;;;;;;;;;13.11;100.00;98489.63;5024412;28;20495;-63
2021/05/26 08:40:18;;;;;;;;;;;;;;;13.68;100.00;98484.97;5023414;28;20355;-63
2021/05/26 08:42:44;;;;;;;;;;;;;;;15.31;100.00;98480.22;5031297;28;20019;-63
2021/05/26 08:45:09;;;;;;;;;;;;;;;16.11;99.47;98476.19;5026319;28;20072;-64
2021/05/26 08:47:36;;;;;;;;;;;;;;;14.13;100.00;98483.41;5033159;28;20444;-63
2021/05/26 08:50:01;;;;;;;;;;;;;;;12.86;100.00;98485.69;5001420;28;19963;-64
2021/05/26 08:52:26;;;;;;;;;;;;;;;14.02;100.00;98478.81;5027979;28;19917;-63
2021/05/26 08:54:52;;;;;;;;;;;;;;;14.96;100.00;98477.94;5030856;28;19916;-63
2021/05/26 08:57:17;;;;;;;;;;;;;;;13.36;100.00;98474.59;5024332;28;19927;-63
2021/05/26 08:59:42;;;;;;;;;;;;;;;13.36;100.00;98478.91;5043904;28;19912;-63
2021/05/26 09:02:11;;;;;;;;;;;;;;;13.56;100.00;98475.28;5035174;28;19932;-63
2021/05/26 09:04:37;;;;;;;;;;;;;;;14.07;100.00;98473.41;5030918;28;19944;-58
2021/05/26 09:07:06;;;;;;;;;;;;;;;13.47;100.00;98462.84;4993581;28;19967;-54
2021/05/26 09:09:47;;;;;;;;;;;;;;;13.43;100.00;98463.91;5013342;28;19914;-62
2021/05/26 09:12:12;;;;;;;;;;;;;;;15.53;97.72;98459.84;5043326;28;20364;-62
2021/05/26 09:14:38;;;;;;;;;;;;;;;15.76;100.00;98455.88;5016077;28;19960;-63
2021/05/26 09:17:12;;;;;;;;;;;;;;;14.85;98.92;98458.66;5002108;28;19917;-62
2021/05/26 09:19:38;;;;;;;;;;;;;;;16.11;93.35;98455.41;5014532;28;19913;-63
2021/05/26 09:22:18;;;;;;;;;;;;;;;16.23;91.04;98449.41;5021301;28;19917;-62
2021/05/26 09:24:43;;;;;;;;;;;;;;;17.07;87.11;98440.47;5018735;28;19917;-62
2021/05/26 09:27:09;;;;;;;;;;;;;;;17.71;87.38;98440.41;5021725;28;20409;-64
2021/05/26 09:29:35;;;;;;;;;;;;;;;17.75;82.91;98441.03;5043362;28;19913;-64
2021/05/26 09:32:18;;;;;;;;;;;;;;;18.13;82.52;98435.75;5039333;28;20040;-63
2021/05/26 09:34:46;;;;;;;;;;;;;;;17.64;82.55;98433.16;5035645;28;19941;-63
2021/05/26 09:37:15;;;;;;;;;;;;;;;17.51;77.75;98428.78;5037457;28;19944;-63
2021/05/26 09:40:03;;;;;;;;;;;;;;;17.20;81.55;98424.06;5036024;28;19923;-63
2021/05/26 09:42:28;;;;;;;;;;;;;;;17.21;80.74;98436.13;5017415;28;19916;-63
2021/05/26 09:45:03;;;;;;;;;;;;;;;17.38;82.31;98422.78;5035947;28;19913;-63
2021/05/26 09:47:41;;;;;;;;;;;;;;;17.54;87.81;98428.59;5036028;28;19913;-63
2021/05/26 09:50:25;;;;;;;;;;;;;;;17.25;84.47;98432.38;5017107;28;20370;-63
2021/05/26 09:53:00;;;;;;;;;;;;;;;17.05;89.22;98431.13;5033961;28;19917;-63
2021/05/26 09:55:36;;;;;;;;;;;;;;;17.78;82.28;98430.41;5034187;28;20003;-63
2021/05/26 09:58:02;;;;;;;;;;;;;;;18.69;80.97;98431.69;5034230;28;19928;-63
2021/05/26 10:00:28;;;;;;;;;;;;;;;17.52;82.27;98434.84;5033370;28;19913;-63
2021/05/26 10:02:54;;;;;;;;;;;;;;;18.05;83.76;98425.03;5020313;28;19917;-63
2021/05/26 10:05:20;;;;;;;;;;;;;;;18.68;77.06;98425.66;5037316;28;19996;-63
2021/05/26 10:07:52;;;;;;;;;;;;;;;18.94;72.47;98425.50;5035226;28;19924;-63
2021/05/26 10:10:18;;;;;;;;;;;;;;;18.03;74.35;98428.69;5031198;28;20020;-63
2021/05/26 10:12:44;;;;;;;;;;;;;;;18.50;77.94;98429.63;5034155;28;19925;-63
2021/05/26 10:15:11;;;;;;;;;;;;;;;18.75;77.61;98418.19;5013859;28;20077;-63
2021/05/26 10:17:39;;;;;;;;;;;;;;;17.94;71.67;98425.78;5031924;28;19913;-63
2021/05/26 10:20:05;;;;;;;;;;;;;;;18.75;72.88;98420.81;5043539;28;20015;-63
2021/05/26 10:22:31;;;;;;;;;;;;;;;17.89;77.03;98412.25;5049787;28;19964;-63
2021/05/26 10:24:56;;;;;;;;;;;;;;;18.22;71.96;98407.34;5043702;28;19913;-62
2021/05/26 10:27:32;;;;;;;;;;;;;;;17.51;75.92;98407.94;5033503;28;19912;-64
2021/05/26 10:29:58;;;;;;;;;;;;;;;18.29;71.94;98419.81;5039189;28;19917;-62
2021/05/26 10:32:24;;;;;;;;;;;;;;;18.38;70.64;98418.28;5009927;28;19943;-63
2021/05/26 10:34:51;;;;;;;;;;;;;;;18.77;78.02;98414.56;5025268;28;19982;-63
2021/05/26 10:37:37;;;;;;;;;;;;;;;17.70;83.16;98417.09;5029878;28;19963;-63
2021/05/26 10:40:23;;;;;;;;;;;;;;;18.53;82.43;98417.16;5030458;28;19913;-63
2021/05/26 10:42:49;;;;;;;;;;;;;;;18.16;75.34;98414.66;5000994;28;20429;-62
2021/05/26 10:45:16;;;;;;;;;;;;;;;19.71;76.82;98406.56;5031993;28;19914;-63
2021/05/26 10:47:42;;;;;;;;;;;;;;;19.95;69.99;98407.19;5031933;28;19982;-63
2021/05/26 10:50:15;;;;;;;;;;;;;;;19.22;69.70;98409.38;5031808;28;20555;-64
2021/05/26 10:52:56;;;;;;;;;;;;;;;17.58;73.99;98410.97;5030537;28;19975;-63
2021/05/26 10:55:48;;;;;;;;;;;;;;;18.00;91.91;98408.91;5019235;28;19921;-63
2021/05/26 10:58:26;;;;;;;;;;;;;;;19.09;74.55;98415.66;5031403;28;19917;-63
2021/05/26 11:00:55;;;;;;;;;;;;;;;18.84;73.56;98403.63;5050443;28;19913;-63
2021/05/26 11:03:27;;;;;;;;;;;;;;;16.40;80.99;98413.72;5049615;28;19917;-62
2021/05/26 11:06:02;;;;;;;;;;;;;;;17.01;79.82;98414.88;5046737;28;19917;-62
2021/05/26 11:08:28;;;;;;;;;;;;;;;18.07;83.85;98406.69;5030100;28;19919;-63
2021/05/26 11:10:53;;;;;;;;;;;;;;;17.81;78.52;98403.28;5031442;28;20477;-63
2021/05/26 11:13:19;;;;;;;;;;;;;;;18.45;75.95;98396.06;5030111;28;19917;-63
2021/05/26 11:15:45;;;;;;;;;;;;;;;17.61;69.50;98407.31;5029405;28;20297;-63
2021/05/26 11:18:14;;;;;;;;;;;;;;;18.79;69.80;98407.44;5031364;28;20000;-63
2021/05/26 11:20:40;;;;;;;;;;;;;;;18.50;73.85;98412.19;5031354;28;19913;-63
2021/05/26 11:23:14;;;;;;;;;;;;;;;19.30;73.02;98405.38;5020035;28;19925;-63
2021/05/26 11:25:52;;;;;;;;;;;;;;;19.91;65.99;98411.03;5010288;28;20268;-63
2021/05/26 11:28:27;;;;;;;;;;;;;;;18.08;73.37;98403.13;5019640;28;19913;-63
2021/05/26 11:31:03;;;;;;;;;;;;;;;19.20;74.94;98398.25;5035516;28;19924;-64
2021/05/26 11:33:28;;;;;;;;;;;;;;;20.35;69.46;98393.50;5050914;28;19913;-62
2021/05/26 11:35:58;;;;;;;;;;;;;;;19.51;75.08;98398.47;5050974;28;20320;-63
2021/05/26 11:38:24;;;;;;;;;;;;;;;19.80;70.75;98392.75;5050684;28;19912;-63
2021/05/26 11:40:50;;;;;;;;;;;;;;;17.30;83.96;98388.63;5049849;28;20401;-63
2021/05/26 11:43:17;;;;;;;;;;;;;;;17.10;78.97;98390.81;5049582;28;19924;-63
2021/05/26 11:45:43;;;;;;;;;;;;;;;17.00;81.39;98392.41;5050268;28;19913;-63
2021/05/26 11:48:08;;;;;;;;;;;;;;;18.27;76.35;98400.84;5032338;28;19912;-63
2021/05/26 11:50:33;;;;;;;;;;;;;;;18.67;69.58;98402.28;5050127;28;19955;-63
2021/05/26 11:53:02;;;;;;;;;;;;;;;18.10;71.07;98406.44;5050434;28;19913;-62
2021/05/26 11:55:27;;;;;;;;;;;;;;;16.37;80.27;98413.94;5061815;28;19913;-63
2021/05/26 11:57:53;;;;;;;;;;;;;;;18.24;79.07;98400.25;5051131;28;19912;-62
2021/05/26 12:00:31;;;;;;;;;;;;;;;18.23;68.44;98406.41;5050945;28;19920;-63
2021/05/26 12:03:04;;;;;;;;;;;;;;;18.19;70.55;98395.34;5050060;28;19916;-63
2021/05/26 12:05:51;;;;;;;;;;;;;;;19.23;67.95;98395.38;5048980;28;20380;-63
2021/05/26 12:08:17;;;;;;;;;;;;;;;16.26;73.98;98401.63;5049755;28;19919;-63
2021/05/26 12:10:43;;;;;;;;;;;;;;;18.88;71.23;98397.25;5031286;28;19920;-63
2021/05/26 12:13:09;;;;;;;;;;;;;;;19.46;69.00;98397.16;5049226;28;19917;-63
2021/05/26 12:15:34;;;;;;;;;;;;;;;19.76;66.39;98400.00;5054237;28;20003;-64
2021/05/26 12:18:00;;;;;;;;;;;;;;;20.36;66.08;98389.09;5031563;28;19959;-62
2021/05/26 12:20:26;;;;;;;;;;;;;;;19.10;67.45;98389.44;5028203;28;19913;-63
2021/05/26 12:22:53;;;;;;;;;;;;;;;20.19;65.16;98387.88;5030110;28;19927;-63
2021/05/26 12:25:18;;;;;;;;;;;;;;;19.51;64.55;98398.47;5014709;28;19943;-63
2021/05/26 12:27:48;;;;;;;;;;;;;;;19.31;63.95;98392.16;5034161;28;20473;-63
2021/05/26 12:30:15;;;;;;;;;;;;;;;17.70;72.34;98391.06;5065953;28;20004;-63
2021/05/26 12:32:41;;;;;;;;;;;;;;;16.60;82.94;98395.03;5038907;28;19990;-63
2021/05/26 12:35:13;;;;;;;;;;;;;;;16.59;74.14;98387.38;5073207;28;21454;-63
2021/05/26 12:37:40;;;;;;;;;;;;;;;18.48;69.78;98376.75;5074198;28;19912;-63
2021/05/26 12:40:05;;;;;;;;;;;;;;;19.50;65.61;98380.28;5037081;28;20011;-62
2021/05/26 12:42:38;;;;;;;;;;;;;;;17.98;72.71;98389.94;5036456;28;20438;-63
2021/05/26 12:45:24;;;;;;;;;;;;;;;17.55;73.73;98383.38;5036480;28;19917;-63
2021/05/26 12:47:49;;;;;;;;;;;;;;;19.32;61.46;98382.59;5036397;28;19919;-63
2021/05/26 12:50:15;;;;;;;;;;;;;;;19.19;70.00;98375.69;5036327;28;20004;-63